createdAt,value
2022-09-28T00:01:17.935Z,99217.00
2022-09-28T00:03:47.540Z,99225.34
2022-09-28T00:06:18.555Z,99216.66
2022-09-28T00:08:50.055Z,99211.22
2022-09-28T00:11:19.204Z,99217.06
2022-09-28T00:13:52.285Z,99212.91
2022-09-28T00:16:28.465Z,99222.06
2022-09-28T00:18:57.833Z,99211.22
2022-09-28T00:21:31.344Z,99210.41
2022-09-28T00:24:12.588Z,99215.41
2022-09-28T00:26:51.581Z,99203.09
2022-09-28T00:29:20.375Z,99201.22
2022-09-28T00:31:54.268Z,99199.91
2022-09-28T00:34:23.658Z,99202.03
2022-09-28T00:36:50.520Z,99195.75
2022-09-28T00:39:18.316Z,99198.59
2022-09-28T00:41:47.764Z,99192.81
2022-09-28T00:44:26.766Z,99187.38
2022-09-28T00:47:15.153Z,99184.88
2022-09-28T00:49:57.591Z,99189.44
2022-09-28T00:52:47.948Z,99186.50
2022-09-28T00:55:41.583Z,99176.09
2022-09-28T00:58:15.161Z,99178.41
2022-09-28T01:00:42.570Z,99183.22
2022-09-28T01:03:09.766Z,99181.94
2022-09-28T01:05:39.325Z,99187.84
2022-09-28T01:08:07.312Z,99187.59
2022-09-28T01:10:36.517Z,99190.19
2022-09-28T01:13:03.348Z,99182.00
2022-09-28T01:15:33.094Z,99186.28
2022-09-28T01:18:15.048Z,99175.84
2022-09-28T01:20:57.128Z,99173.34
2022-09-28T01:23:54.084Z,99169.41
2022-09-28T01:26:26.500Z,99174.13
2022-09-28T01:29:18.826Z,99170.84
2022-09-28T01:32:18.333Z,99172.59
2022-09-28T01:35:15.138Z,99166.34
2022-09-28T01:37:58.886Z,99166.47
2022-09-28T01:40:27.824Z,99165.72
2022-09-28T01:43:26.729Z,99165.00
2022-09-28T01:46:13.575Z,99169.34
2022-09-28T01:48:56.420Z,99164.03
2022-09-28T01:51:46.117Z,99166.78
2022-09-28T01:54:21.438Z,99162.03
2022-09-28T01:56:55.909Z,99160.50
2022-09-28T01:59:33.517Z,99161.56
2022-09-28T02:02:34.430Z,99157.94
2022-09-28T02:05:11.055Z,99163.84
2022-09-28T02:07:46.823Z,99152.75
2022-09-28T02:10:20.281Z,99150.34
2022-09-28T02:12:52.240Z,99150.34
2022-09-28T02:15:28.019Z,99157.50
2022-09-28T02:17:57.591Z,99156.75
2022-09-28T02:20:25.144Z,99153.22
2022-09-28T02:22:58.008Z,99144.78
2022-09-28T02:25:54.095Z,99143.19
2022-09-28T02:28:21.094Z,99134.81
2022-09-28T02:30:50.077Z,99139.47
2022-09-28T02:33:33.492Z,99133.91
2022-09-28T02:36:04.044Z,99137.81
2022-09-28T02:38:34.456Z,99136.81
2022-09-28T02:41:46.763Z,99138.34
2022-09-28T02:44:57.722Z,99149.28
2022-09-28T02:47:45.468Z,99145.97
2022-09-28T02:50:56.074Z,99142.47
2022-09-28T02:53:52.826Z,99138.31
2022-09-28T02:56:33.700Z,99132.50
2022-09-28T02:59:24.652Z,99141.31
2022-09-28T03:02:20.320Z,99136.00
2022-09-28T03:05:04.252Z,99131.81
2022-09-28T03:07:43.441Z,99126.03
2022-09-28T03:10:48.794Z,99133.66
2022-09-28T03:13:16.722Z,99137.78
2022-09-28T03:15:48.557Z,99133.31
2022-09-28T03:18:16.628Z,99129.97
2022-09-28T03:20:50.219Z,99135.91
2022-09-28T03:23:25.334Z,99126.69
2022-09-28T03:25:52.872Z,99129.66
2022-09-28T03:28:22.096Z,99121.41
2022-09-28T03:30:49.640Z,99129.69
2022-09-28T03:33:16.594Z,99129.19
2022-09-28T03:35:50.378Z,99135.13
2022-09-28T03:38:19.072Z,99141.72
2022-09-28T03:40:57.053Z,99124.72
2022-09-28T03:43:25.428Z,99133.66
2022-09-28T03:45:59.977Z,99123.13
2022-09-28T03:48:37.491Z,99131.72
2022-09-28T03:51:09.132Z,99131.81
2022-09-28T03:53:39.440Z,99124.81
2022-09-28T03:56:11.804Z,99127.66
2022-09-28T03:58:38.719Z,99130.03
2022-09-28T04:01:17.516Z,99132.34
2022-09-28T04:03:45.575Z,99128.94
2022-09-28T04:06:12.721Z,99122.19
2022-09-28T04:08:43.365Z,99121.00
2022-09-28T04:11:10.404Z,99116.16
2022-09-28T04:13:37.327Z,99128.59
2022-09-28T04:16:05.286Z,99124.63
2022-09-28T04:18:35.248Z,99122.09
2022-09-28T04:21:15.323Z,99117.66
2022-09-28T04:23:42.646Z,99117.59
2022-09-28T04:26:19.169Z,99119.25
2022-09-28T04:29:07.874Z,99102.06
2022-09-28T04:31:53.794Z,99113.97
2022-09-28T04:34:22.662Z,99110.91
2022-09-28T04:36:49.965Z,99111.94
2022-09-28T04:39:19.187Z,99112.38
2022-09-28T04:41:50.559Z,99110.72
2022-09-28T04:44:21.651Z,99119.47
2022-09-28T04:46:48.465Z,99113.63
2022-09-28T04:49:15.359Z,99114.63
2022-09-28T04:51:45.990Z,99111.53
2022-09-28T04:54:13.106Z,99116.97
2022-09-28T04:56:42.015Z,99111.94
2022-09-28T04:59:11.126Z,99105.50
2022-09-28T05:01:38.005Z,99113.63
2022-09-28T05:04:07.350Z,99114.03
2022-09-28T05:06:34.218Z,99109.03
2022-09-28T05:09:03.362Z,99114.03
2022-09-28T05:11:30.197Z,99113.63
2022-09-28T05:13:56.988Z,99112.16
2022-09-28T05:16:33.698Z,99116.13
2022-09-28T05:19:00.642Z,99106.94
2022-09-28T05:21:30.785Z,99110.69
2022-09-28T05:23:58.308Z,99102.97
2022-09-28T05:26:25.418Z,99101.13
2022-09-28T05:28:52.265Z,99103.63
2022-09-28T05:31:21.346Z,99104.03
2022-09-28T05:33:53.797Z,99101.97
2022-09-28T05:36:20.736Z,99109.03
2022-09-28T05:38:54.834Z,99108.03
2022-09-28T05:41:21.630Z,99097.78
2022-09-28T05:43:48.516Z,99107.78
2022-09-28T05:46:18.286Z,99113.41
2022-09-28T05:48:47.469Z,99109.91
2022-09-28T05:51:14.246Z,99109.88
2022-09-28T05:53:41.108Z,99109.25
2022-09-28T05:56:13.138Z,99106.31
2022-09-28T05:58:42.393Z,99103.19
2022-09-28T06:01:09.444Z,99103.44
2022-09-28T06:03:39.245Z,99108.22
2022-09-28T06:06:12.054Z,99107.53
2022-09-28T06:08:42.920Z,99111.13
2022-09-28T06:11:12.482Z,99101.47
2022-09-28T06:13:43.832Z,99104.38
2022-09-28T06:16:18.660Z,99098.84
2022-09-28T06:18:45.519Z,99107.16
2022-09-28T06:21:14.798Z,99115.53
2022-09-28T06:23:45.602Z,99107.91
2022-09-28T06:26:18.094Z,99108.47
2022-09-28T06:28:44.977Z,99118.53
2022-09-28T06:31:11.980Z,99119.75
2022-09-28T06:33:38.842Z,99126.50
2022-09-28T06:36:05.913Z,99134.88
2022-09-28T06:38:32.750Z,99134.88
2022-09-28T06:41:02.251Z,99121.13
2022-09-28T06:43:33.619Z,99142.00
2022-09-28T06:46:02.990Z,99143.66
2022-09-28T06:48:33.455Z,99141.97
2022-09-28T06:51:05.118Z,99138.88
2022-09-28T06:53:32.487Z,99145.75
2022-09-28T06:56:02.599Z,99145.75
2022-09-28T06:58:29.412Z,99141.56
2022-09-28T07:01:02.446Z,99159.88
2022-09-28T07:03:33.907Z,99154.84
2022-09-28T07:06:04.320Z,99149.09
2022-09-28T07:08:31.141Z,99152.00
2022-09-28T07:11:01.306Z,99150.75
2022-09-28T07:13:49.055Z,99152.41
2022-09-28T07:16:22.746Z,99148.66
2022-09-28T07:18:52.686Z,99158.66
2022-09-28T07:21:27.676Z,99152.63
2022-09-28T07:23:56.962Z,99161.13
2022-09-28T07:26:24.716Z,99154.66
2022-09-28T07:28:55.859Z,99167.25
2022-09-28T07:31:25.204Z,99163.03
2022-09-28T07:33:56.758Z,99163.72
2022-09-28T07:36:23.688Z,99171.19
2022-09-28T07:38:52.836Z,99166.97
2022-09-28T07:41:32.150Z,99180.63
2022-09-28T07:44:06.217Z,99173.81
2022-09-28T07:46:35.368Z,99179.47
2022-09-28T07:49:08.462Z,99172.75
2022-09-28T07:51:38.353Z,99174.25
2022-09-28T07:54:07.771Z,99183.34
2022-09-28T07:56:36.673Z,99188.38
2022-09-28T07:59:06.151Z,99181.69
2022-09-28T08:01:35.538Z,99175.53
2022-09-28T08:04:07.119Z,99187.44
2022-09-28T08:06:36.064Z,99190.38
2022-09-28T08:09:02.924Z,99186.81
2022-09-28T08:11:29.933Z,99194.91
2022-09-28T08:13:58.040Z,99184.44
2022-09-28T08:16:27.150Z,99185.63
2022-09-28T08:18:56.250Z,99191.78
2022-09-28T08:21:42.418Z,99195.50
2022-09-28T08:24:12.963Z,99192.41
2022-09-28T08:26:45.821Z,99197.28
2022-09-28T08:29:15.253Z,99206.59
2022-09-28T08:31:42.025Z,99199.81
2022-09-28T08:34:08.970Z,99198.03
2022-09-28T08:36:35.808Z,99201.63
2022-09-28T08:39:02.701Z,99208.78
2022-09-28T08:41:40.051Z,99206.88
2022-09-28T08:44:24.517Z,99201.22
2022-09-28T08:47:04.505Z,99196.94
2022-09-28T08:49:38.549Z,99201.84
2022-09-28T08:52:25.045Z,99207.03
2022-09-28T08:55:14.281Z,99203.19
2022-09-28T08:57:52.387Z,99208.69
2022-09-28T09:00:33.219Z,99210.09
2022-09-28T09:03:06.029Z,99208.41
2022-09-28T09:06:03.048Z,99208.75
2022-09-28T09:09:01.156Z,99209.44
2022-09-28T09:11:58.611Z,99216.66
2022-09-28T09:14:47.784Z,99211.69
2022-09-28T09:17:37.303Z,99212.00
2022-09-28T09:20:33.059Z,99216.50
2022-09-28T09:23:02.943Z,99218.09
2022-09-28T09:26:03.036Z,99217.34
2022-09-28T09:29:04.697Z,99217.00
2022-09-28T09:32:05.161Z,99212.00
2022-09-28T09:35:13.911Z,99212.63
2022-09-28T09:37:56.492Z,99211.59
2022-09-28T09:41:23.258Z,99214.84
2022-09-28T09:44:28.755Z,99219.16
2022-09-28T09:47:07.762Z,99223.66
2022-09-28T09:50:17.909Z,99220.09
2022-09-28T09:52:57.212Z,99213.25
2022-09-28T09:55:40.688Z,99216.50
2022-09-28T09:58:34.363Z,99223.41
2022-09-28T10:01:27.304Z,99217.88
2022-09-28T10:03:55.733Z,99213.88
2022-09-28T10:06:34.185Z,99219.47
2022-09-28T10:09:15.708Z,99219.41
2022-09-28T10:11:54.053Z,99218.91
2022-09-28T10:14:25.626Z,99232.97
2022-09-28T10:16:56.609Z,99223.41
2022-09-28T10:19:35.215Z,99224.47
2022-09-28T10:22:05.599Z,99222.53
2022-09-28T10:24:45.160Z,99220.28
2022-09-28T10:27:20.081Z,99226.31
2022-09-28T10:30:08.199Z,99231.13
2022-09-28T10:32:43.733Z,99233.22
2022-09-28T10:35:24.176Z,99243.81
2022-09-28T10:38:17.453Z,99235.56
2022-09-28T10:40:51.504Z,99235.78
2022-09-28T10:43:28.293Z,99243.41
2022-09-28T10:46:07.990Z,99240.97
2022-09-28T10:48:55.868Z,99251.00
2022-09-28T10:51:48.014Z,99244.03
2022-09-28T10:54:20.333Z,99240.72
2022-09-28T10:56:48.931Z,99239.19
2022-09-28T10:59:31.023Z,99240.44
2022-09-28T11:02:22.245Z,99235.75
2022-09-28T11:04:57.679Z,99241.16
2022-09-28T11:07:28.555Z,99243.50
2022-09-28T11:09:56.223Z,99241.69
2022-09-28T11:12:33.366Z,99249.53
2022-09-28T11:15:06.419Z,99239.81
2022-09-28T11:17:40.355Z,99244.22
2022-09-28T11:20:35.541Z,99242.97
2022-09-28T11:23:10.449Z,99247.75
2022-09-28T11:25:37.299Z,99244.56
2022-09-28T11:28:05.594Z,99248.09
2022-09-28T11:30:49.150Z,99250.78
2022-09-28T11:33:30.868Z,99259.69
2022-09-28T11:36:17.996Z,99255.97
2022-09-28T11:39:11.624Z,99251.88
2022-09-28T11:42:04.607Z,99247.34
2022-09-28T11:44:41.362Z,99244.25
2022-09-28T11:47:34.392Z,99249.88
2022-09-28T11:50:26.948Z,99246.88
2022-09-28T11:53:22.207Z,99248.78
2022-09-28T11:56:08.849Z,99246.56
2022-09-28T11:59:19.486Z,99254.28
2022-09-28T12:02:04.524Z,99255.03
2022-09-28T12:04:43.145Z,99249.72
2022-09-28T12:07:51.481Z,99253.09
2022-09-28T12:10:40.199Z,99248.03
2022-09-28T12:13:10.280Z,99254.25
2022-09-28T12:16:15.112Z,99257.66
2022-09-28T12:18:49.734Z,99262.34
2022-09-28T12:21:33.730Z,99259.81
2022-09-28T12:24:18.907Z,99265.00
2022-09-28T12:26:52.150Z,99258.56
2022-09-28T12:29:29.170Z,99264.97
2022-09-28T12:32:23.615Z,99266.38
2022-09-28T12:34:53.458Z,99261.97
2022-09-28T12:37:42.625Z,99265.25
2022-09-28T12:40:09.675Z,99260.03
2022-09-28T12:43:20.054Z,99274.06
2022-09-28T12:46:11.152Z,99271.53
2022-09-28T12:50:07.205Z,99273.19
2022-09-28T12:52:31.151Z,99272.31
2022-09-28T12:55:39.876Z,99266.13
2022-09-28T12:58:38.769Z,99269.25
2022-09-28T13:01:24.216Z,99274.06
2022-09-28T13:03:57.843Z,99273.47
2022-09-28T13:06:58.875Z,99278.03
2022-09-28T13:09:28.961Z,99267.59
2022-09-28T13:12:15.656Z,99277.97
2022-09-28T13:15:27.418Z,99272.16
2022-09-28T13:18:26.090Z,99278.91
2022-09-28T13:21:34.273Z,99277.53
2022-09-28T13:24:30.975Z,99279.84
2022-09-28T13:27:04.573Z,99277.75
2022-09-28T13:29:34.546Z,99281.88
2022-09-28T13:32:03.227Z,99277.50
2022-09-28T13:34:35.283Z,99279.84
2022-09-28T13:37:16.713Z,99284.31
2022-09-28T13:39:47.146Z,99280.56
2022-09-28T13:42:50.745Z,99276.31
2022-09-28T13:45:20.650Z,99275.50
2022-09-28T13:48:15.313Z,99274.06
2022-09-28T13:51:03.150Z,99280.13
2022-09-28T13:54:05.623Z,99280.31
2022-09-28T13:56:53.879Z,99281.69
2022-09-28T13:59:30.476Z,99288.59
2022-09-28T14:02:30.259Z,99285.00
2022-09-28T14:05:06.938Z,99287.63
2022-09-28T14:07:59.401Z,99277.63
2022-09-28T14:11:11.331Z,99282.75
2022-09-28T14:13:41.265Z,99280.16
2022-09-28T14:16:32.804Z,99290.84
2022-09-28T14:19:09.562Z,99293.44
2022-09-28T14:21:58.524Z,99287.56
2022-09-28T14:24:55.940Z,99288.63
2022-09-28T14:27:51.287Z,99286.69
2022-09-28T14:30:41.587Z,99291.19
2022-09-28T14:33:21.007Z,99295.22
2022-09-28T14:36:05.343Z,99293.25
2022-09-28T14:39:31.015Z,99294.16
2022-09-28T14:42:10.179Z,99302.50
2022-09-28T14:45:07.073Z,99290.16
2022-09-28T14:47:41.925Z,99296.38
2022-09-28T14:50:40.465Z,99297.34
2022-09-28T14:53:13.815Z,99299.41
2022-09-28T14:55:55.407Z,99296.13
2022-09-28T14:58:28.825Z,99302.25
2022-09-28T15:01:18.267Z,99303.91
2022-09-28T15:03:52.267Z,99305.09
2022-09-28T15:06:26.861Z,99302.78
2022-09-28T15:08:56.709Z,99301.34
2022-09-28T15:11:28.790Z,99304.50
2022-09-28T15:14:07.290Z,99314.97
2022-09-28T15:16:34.294Z,99317.28
2022-09-28T15:19:39.657Z,99310.84
2022-09-28T15:22:18.326Z,99310.00
2022-09-28T15:24:59.946Z,99311.44
2022-09-28T15:27:39.363Z,99313.38
2022-09-28T15:30:22.049Z,99312.41
2022-09-28T15:32:53.967Z,99317.28
2022-09-28T15:35:26.941Z,99319.84
2022-09-28T15:37:56.390Z,99318.34
2022-09-28T15:40:38.136Z,99318.88
2022-09-28T15:43:30.798Z,99329.88
2022-09-28T15:46:05.992Z,99320.22
2022-09-28T15:48:52.654Z,99316.56
2022-09-28T15:51:26.203Z,99319.28
2022-09-28T15:54:02.844Z,99322.91
2022-09-28T15:56:33.337Z,99326.16
2022-09-28T15:59:15.512Z,99327.19
2022-09-28T16:01:50.681Z,99328.16
2022-09-28T16:04:41.741Z,99333.13
2022-09-28T16:07:40.664Z,99333.00
2022-09-28T16:10:13.612Z,99340.09
2022-09-28T16:12:42.024Z,99339.50
2022-09-28T16:15:27.977Z,99337.09
2022-09-28T16:18:13.175Z,99344.28
2022-09-28T16:20:41.272Z,99347.97
2022-09-28T16:23:17.030Z,99346.91
2022-09-28T16:25:54.341Z,99352.72
2022-09-28T16:28:48.710Z,99351.91
2022-09-28T16:31:15.551Z,99351.09
2022-09-28T16:34:01.206Z,99346.09
2022-09-28T16:36:43.383Z,99346.69
2022-09-28T16:39:11.691Z,99351.91
2022-09-28T16:41:42.261Z,99354.16
2022-09-28T16:44:23.215Z,99353.19
2022-09-28T16:46:53.925Z,99358.13
2022-09-28T16:49:21.421Z,99350.50
2022-09-28T16:51:48.282Z,99358.16
2022-09-28T16:54:40.569Z,99356.41
2022-09-28T16:57:13.064Z,99356.53
2022-09-28T16:59:45.377Z,99359.19
2022-09-28T17:02:45.756Z,99357.97
2022-09-28T17:05:10.143Z,99359.72
2022-09-28T17:07:39.721Z,99361.44
2022-09-28T17:10:24.278Z,99368.56
2022-09-28T17:12:53.164Z,99370.06
2022-09-28T17:15:23.637Z,99375.97
2022-09-28T17:17:50.488Z,99374.66
2022-09-28T17:20:26.744Z,99377.16
2022-09-28T17:23:06.191Z,99371.47
2022-09-28T17:25:33.090Z,99383.06
2022-09-28T17:28:03.087Z,99389.75
2022-09-28T17:30:30.077Z,99386.31
2022-09-28T17:32:58.625Z,99383.34
2022-09-28T17:35:25.970Z,99380.81
2022-09-28T17:37:55.372Z,99382.06
2022-09-28T17:40:28.328Z,99375.00
2022-09-28T17:42:57.577Z,99388.13
2022-09-28T17:45:28.697Z,99382.97
2022-09-28T17:48:00.757Z,99387.63
2022-09-28T17:50:34.182Z,99390.50
2022-09-28T17:53:06.078Z,99389.00
2022-09-28T17:55:36.189Z,99394.78
2022-09-28T17:58:17.111Z,99397.47
2022-09-28T18:00:48.951Z,99402.84
2022-09-28T18:03:22.695Z,99404.31
2022-09-28T18:05:59.531Z,99403.16
2022-09-28T18:08:26.389Z,99409.56
2022-09-28T18:10:57.287Z,99397.75
2022-09-28T18:13:28.289Z,99407.72
2022-09-28T18:15:57.729Z,99413.09
2022-09-28T18:18:25.440Z,99405.00
2022-09-28T18:20:52.497Z,99407.31
2022-09-28T18:23:19.550Z,99411.91
2022-09-28T18:25:47.222Z,99415.91
2022-09-28T18:28:14.953Z,99412.75
2022-09-28T18:30:44.766Z,99416.53
2022-09-28T18:33:15.011Z,99429.91
2022-09-28T18:35:51.278Z,99417.63
2022-09-28T18:38:19.985Z,99423.06
2022-09-28T18:40:48.466Z,99427.03
2022-09-28T18:43:16.169Z,99434.97
2022-09-28T18:45:43.450Z,99423.28
2022-09-28T18:48:10.415Z,99434.78
2022-09-28T18:50:37.552Z,99430.81
2022-09-28T18:53:11.988Z,99438.72
2022-09-28T18:55:41.748Z,99434.97
2022-09-28T18:58:14.910Z,99442.47
2022-09-28T19:00:42.543Z,99449.97
2022-09-28T19:03:11.632Z,99450.75
2022-09-28T19:05:46.250Z,99455.06
2022-09-28T19:08:16.768Z,99458.56
2022-09-28T19:10:48.579Z,99457.47
2022-09-28T19:13:15.507Z,99462.72
2022-09-28T19:15:42.407Z,99456.44
2022-09-28T19:18:09.273Z,99463.91
2022-09-28T19:20:40.924Z,99469.22
2022-09-28T19:23:10.382Z,99467.56
2022-09-28T19:25:37.213Z,99465.53
2022-09-28T19:28:04.126Z,99473.41
2022-09-28T19:30:31.380Z,99469.66
2022-09-28T19:32:58.412Z,99478.53
2022-09-28T19:35:25.218Z,99471.03
2022-09-28T19:37:54.529Z,99478.50
2022-09-28T19:40:21.390Z,99473.38
2022-09-28T19:42:50.462Z,99484.09
2022-09-28T19:45:17.343Z,99487.44
2022-09-28T19:47:47.021Z,99487.63
2022-09-28T19:50:13.845Z,99484.44
2022-09-28T19:52:42.882Z,99488.97
2022-09-28T19:55:12.357Z,99493.09
2022-09-28T19:57:39.273Z,99495.03
2022-09-28T20:00:09.608Z,99494.00
2022-09-28T20:02:36.595Z,99491.13
2022-09-28T20:05:06.292Z,99494.00
2022-09-28T20:07:36.815Z,99497.84
2022-09-28T20:10:11.908Z,99496.28
2022-09-28T20:12:43.934Z,99506.69
2022-09-28T20:15:11.073Z,99511.91
2022-09-28T20:17:40.510Z,99504.25
2022-09-28T20:20:07.830Z,99510.22
2022-09-28T20:22:40.218Z,99502.69
2022-09-28T20:25:10.235Z,99513.44
2022-09-28T20:27:39.180Z,99512.16
2022-09-28T20:30:07.689Z,99514.06
2022-09-28T20:32:35.252Z,99504.75
2022-09-28T20:35:02.175Z,99510.16
2022-09-28T20:37:30.420Z,99510.78
2022-09-28T20:39:58.167Z,99507.53
2022-09-28T20:42:25.744Z,99508.09
2022-09-28T20:44:53.033Z,99511.19
2022-09-28T20:47:24.526Z,99515.38
2022-09-28T20:49:51.389Z,99510.59
2022-09-28T20:52:23.108Z,99509.50
2022-09-28T20:54:52.379Z,99520.56
2022-09-28T20:57:20.180Z,99519.72
2022-09-28T20:59:52.294Z,99517.78
2022-09-28T21:02:22.319Z,99528.97
2022-09-28T21:04:49.136Z,99530.25
2022-09-28T21:07:15.976Z,99527.28
2022-09-28T21:09:45.478Z,99543.50
2022-09-28T21:12:12.704Z,99539.59
2022-09-28T21:14:46.764Z,99540.53
2022-09-28T21:17:13.648Z,99549.19
2022-09-28T21:19:40.593Z,99548.22
2022-09-28T21:22:07.583Z,99556.13
2022-09-28T21:24:37.625Z,99549.41
2022-09-28T21:27:06.744Z,99546.41
2022-09-28T21:29:36.566Z,99546.28
2022-09-28T21:32:05.959Z,99552.47
2022-09-28T21:34:32.922Z,99545.09
2022-09-28T21:36:59.758Z,99542.59
2022-09-28T21:39:29.824Z,99555.75
2022-09-28T21:41:56.942Z,99553.72
2022-09-28T21:44:23.937Z,99553.44
2022-09-28T21:46:50.834Z,99552.44
2022-09-28T21:49:17.908Z,99550.72
2022-09-28T21:51:47.050Z,99556.19
2022-09-28T21:54:15.043Z,99556.34
2022-09-28T21:56:41.958Z,99557.44
2022-09-28T21:59:08.797Z,99555.75
2022-09-28T22:01:35.673Z,99554.09
2022-09-28T22:04:05.136Z,99558.81
2022-09-28T22:06:32.048Z,99565.97
2022-09-28T22:08:58.963Z,99560.06
2022-09-28T22:11:28.410Z,99552.03
2022-09-28T22:13:58.400Z,99553.53
2022-09-28T22:16:30.686Z,99553.28
2022-09-28T22:19:01.155Z,99553.56
2022-09-28T22:21:32.648Z,99553.88
2022-09-28T22:24:07.271Z,99556.84
2022-09-28T22:26:36.123Z,99551.16
2022-09-28T22:29:07.208Z,99547.75
2022-09-28T22:31:38.907Z,99556.94
2022-09-28T22:34:08.131Z,99561.69
2022-09-28T22:36:35.362Z,99556.34
2022-09-28T22:39:03.505Z,99562.88
2022-09-28T22:41:32.875Z,99563.84
2022-09-28T22:44:00.154Z,99569.59
2022-09-28T22:46:29.115Z,99572.47
2022-09-28T22:48:58.729Z,99565.41
2022-09-28T22:51:29.871Z,99571.63
2022-09-28T22:53:59.758Z,99569.34
2022-09-28T22:56:26.865Z,99570.19
2022-09-28T22:58:55.942Z,99575.53
2022-09-28T23:01:29.129Z,99573.78
2022-09-28T23:03:59.438Z,99567.50
2022-09-28T23:06:30.663Z,99574.75
2022-09-28T23:08:57.679Z,99578.19
2022-09-28T23:11:27.158Z,99578.22
2022-09-28T23:13:59.723Z,99580.19
2022-09-28T23:16:30.301Z,99578.66
2022-09-28T23:18:57.796Z,99578.34
2022-09-28T23:21:27.196Z,99570.06
2022-09-28T23:24:01.836Z,99568.81
2022-09-28T23:26:34.335Z,99568.50
2022-09-28T23:29:01.299Z,99576.41
2022-09-28T23:31:31.575Z,99570.56
2022-09-28T23:34:05.062Z,99571.59
2022-09-28T23:36:32.657Z,99574.34
2022-09-28T23:39:00.289Z,99575.44
2022-09-28T23:41:27.662Z,99578.63
2022-09-28T23:43:54.505Z,99577.19
2022-09-28T23:46:21.521Z,99576.78
2022-09-28T23:48:49.735Z,99581.09
2022-09-28T23:51:16.864Z,99572.34
2022-09-28T23:53:43.729Z,99574.53
2022-09-28T23:56:11.167Z,99578.03
2022-09-28T23:58:38.188Z,99578.66
